createdAt,value
2022-10-23T00:00:02.492Z,101541.95
2022-10-23T00:01:04.371Z,101542.85
2022-10-23T00:02:06.294Z,101537.64
2022-10-23T00:03:08.152Z,101537.64
2022-10-23T00:04:09.986Z,101538.52
2022-10-23T00:05:12.328Z,101535.91
2022-10-23T00:06:16.009Z,101535.91
2022-10-23T00:07:17.851Z,101529.84
2022-10-23T00:08:19.674Z,101530.70
2022-10-23T00:09:21.484Z,101528.10
2022-10-23T00:10:23.308Z,101528.14
2022-10-23T00:11:25.278Z,101532.52
2022-10-23T00:12:27.109Z,101524.70
2022-10-23T00:13:28.916Z,101524.73
2022-10-23T00:14:30.745Z,101527.34
2022-10-23T00:15:32.564Z,101525.60
2022-10-23T00:16:34.433Z,101523.00
2022-10-23T00:17:36.595Z,101524.73
2022-10-23T00:18:38.418Z,101519.53
2022-10-23T00:19:40.861Z,101528.20
2022-10-23T00:20:42.686Z,101527.34
2022-10-23T00:21:44.560Z,101522.13
2022-10-23T00:22:46.399Z,101525.60
2022-10-23T00:23:48.215Z,101520.40
2022-10-23T00:24:50.037Z,101517.80
2022-10-23T00:25:51.870Z,101517.83
2022-10-23T00:26:53.748Z,101515.23
2022-10-23T00:27:55.583Z,101506.55
2022-10-23T00:28:57.407Z,101512.63
2022-10-23T00:29:59.230Z,101515.27
2022-10-23T00:31:01.067Z,101511.79
2022-10-23T00:32:02.927Z,101507.45
2022-10-23T00:33:04.772Z,101510.05
2022-10-23T00:34:06.575Z,101507.42
2022-10-23T00:35:08.400Z,101507.42
2022-10-23T00:36:10.530Z,101504.81
2022-10-23T00:37:12.394Z,101501.37
2022-10-23T00:38:14.224Z,101502.24
2022-10-23T00:39:16.058Z,101498.77
2022-10-23T00:40:19.103Z,101501.37
2022-10-23T00:41:20.929Z,101490.97
2022-10-23T00:42:22.815Z,101495.30
2022-10-23T00:43:24.646Z,101495.34
2022-10-23T00:44:26.457Z,101499.64
2022-10-23T00:45:28.277Z,101497.07
2022-10-23T00:46:30.107Z,101491.00
2022-10-23T00:47:31.986Z,101495.38
2022-10-23T00:48:33.846Z,101493.60
2022-10-23T00:49:37.443Z,101482.35
2022-10-23T00:50:39.297Z,101492.77
2022-10-23T00:51:41.124Z,101487.59
2022-10-23T00:52:43.386Z,101492.80
2022-10-23T00:53:48.000Z,101486.73
2022-10-23T00:54:49.102Z,101485.02
2022-10-23T00:55:50.924Z,101484.16
2022-10-23T00:56:52.736Z,101475.48
2022-10-23T00:57:54.613Z,101476.34
2022-10-23T00:58:56.445Z,101472.04
2022-10-23T00:59:58.294Z,101469.47
2022-10-23T01:01:00.186Z,101473.80
2022-10-23T01:02:02.149Z,101466.03
2022-10-23T01:03:04.111Z,101469.50
2022-10-23T01:04:06.179Z,101467.77
2022-10-23T01:05:08.007Z,101461.72
2022-10-23T01:06:10.646Z,101463.45
2022-10-23T01:07:12.495Z,101453.87
2022-10-23T01:08:14.375Z,101453.87
2022-10-23T01:09:16.210Z,101453.05
2022-10-23T01:10:19.880Z,101460.88
2022-10-23T01:11:21.690Z,101445.23
2022-10-23T01:12:23.515Z,101446.16
2022-10-23T01:13:25.374Z,101444.39
2022-10-23T01:14:27.194Z,101448.77
2022-10-23T01:15:29.021Z,101444.42
2022-10-23T01:16:30.855Z,101444.42
2022-10-23T01:17:32.683Z,101449.66
2022-10-23T01:18:34.536Z,101437.48
2022-10-23T01:19:36.372Z,101434.05
2022-10-23T01:20:38.210Z,101445.33
2022-10-23T01:21:40.053Z,101434.05
2022-10-23T01:22:42.110Z,101434.05
2022-10-23T01:23:44.273Z,101433.17
2022-10-23T01:24:46.094Z,101434.91
2022-10-23T01:25:47.914Z,101435.81
2022-10-23T01:26:49.760Z,101434.97
2022-10-23T01:27:51.596Z,101432.38
2022-10-23T01:28:53.679Z,101434.08
2022-10-23T01:29:55.509Z,101432.38
2022-10-23T01:30:57.552Z,101428.87
2022-10-23T01:31:59.368Z,101431.47
2022-10-23T01:33:01.196Z,101427.16
2022-10-23T01:34:03.073Z,101426.30
2022-10-23T01:35:05.066Z,101430.63
2022-10-23T01:36:07.098Z,101429.80
2022-10-23T01:37:08.930Z,101432.41
2022-10-23T01:38:10.792Z,101426.30
2022-10-23T01:39:12.665Z,101425.45
2022-10-23T01:40:16.313Z,101415.88
2022-10-23T01:41:18.143Z,101420.25
2022-10-23T01:42:19.974Z,101428.06
2022-10-23T01:43:21.808Z,101422.02
2022-10-23T01:44:23.674Z,101419.41
2022-10-23T01:45:25.495Z,101418.52
2022-10-23T01:46:27.309Z,101421.14
2022-10-23T01:47:29.138Z,101419.44
2022-10-23T01:48:30.971Z,101416.84
2022-10-23T01:49:32.828Z,101413.33
2022-10-23T01:50:34.809Z,101413.33
2022-10-23T01:51:36.644Z,101412.47
2022-10-23T01:52:38.472Z,101408.12
2022-10-23T01:53:40.289Z,101414.20
2022-10-23T01:54:42.150Z,101416.84
2022-10-23T01:55:43.968Z,101407.26
2022-10-23T01:56:45.808Z,101403.82
2022-10-23T01:57:47.634Z,101403.82
2022-10-23T01:58:49.456Z,101405.52
2022-10-23T01:59:51.323Z,101405.52
2022-10-23T02:00:53.166Z,101401.22
2022-10-23T02:01:55.076Z,101401.22
2022-10-23T02:02:56.932Z,101395.11
2022-10-23T02:05:00.514Z,101402.92
2022-10-23T02:06:02.405Z,101395.11
2022-10-23T02:07:04.201Z,101399.45
2022-10-23T02:08:05.999Z,101389.90
2022-10-23T02:09:07.824Z,101382.95
2022-10-23T02:10:10.084Z,101387.27
2022-10-23T02:11:11.871Z,101386.42
2022-10-23T02:12:13.755Z,101388.16
2022-10-23T02:13:15.601Z,101389.90
2022-10-23T02:14:17.393Z,101382.09
2022-10-23T02:15:19.255Z,101383.82
2022-10-23T02:16:21.063Z,101382.09
2022-10-23T02:17:22.877Z,101382.98
2022-10-23T02:18:24.667Z,101380.36
2022-10-23T02:19:26.489Z,101379.45
2022-10-23T02:20:28.318Z,101376.88
2022-10-23T02:21:30.150Z,101374.25
2022-10-23T02:22:31.965Z,101369.91
2022-10-23T02:23:33.758Z,101375.12
2022-10-23T02:24:35.556Z,101370.75
2022-10-23T02:25:37.417Z,101376.82
2022-10-23T02:26:39.235Z,101369.88
2022-10-23T02:27:41.026Z,101375.95
2022-10-23T02:28:42.830Z,101371.58
2022-10-23T02:29:44.544Z,101373.32
2022-10-23T02:30:46.491Z,101372.42
2022-10-23T02:31:48.306Z,101373.32
2022-10-23T02:32:50.110Z,101368.11
2022-10-23T02:33:51.896Z,101360.27
2022-10-23T02:34:53.594Z,101364.58
2022-10-23T02:35:55.453Z,101367.19
2022-10-23T02:36:57.358Z,101362.84
2022-10-23T02:37:59.146Z,101368.95
2022-10-23T02:39:00.853Z,101361.11
2022-10-23T02:40:02.557Z,101368.95
2022-10-23T02:41:04.418Z,101364.61
2022-10-23T02:42:06.222Z,101361.14
2022-10-23T02:43:08.021Z,101355.06
2022-10-23T02:44:09.834Z,101356.77
2022-10-23T02:45:11.639Z,101361.14
2022-10-23T02:46:13.893Z,101357.70
2022-10-23T02:47:15.700Z,101355.09
2022-10-23T02:48:17.494Z,101357.70
2022-10-23T02:49:19.303Z,101355.13
2022-10-23T02:50:21.013Z,101350.78
2022-10-23T02:51:22.849Z,101351.69
2022-10-23T02:52:24.645Z,101351.69
2022-10-23T02:53:26.451Z,101348.18
2022-10-23T02:54:28.267Z,101358.63
2022-10-23T02:55:30.066Z,101350.81
2022-10-23T02:56:33.490Z,101349.11
2022-10-23T02:57:35.537Z,101349.97
2022-10-23T02:58:37.326Z,101351.73
2022-10-23T02:59:39.146Z,101350.84
2022-10-23T03:00:40.964Z,101346.53
2022-10-23T03:01:42.889Z,101352.61
2022-10-23T03:02:44.720Z,101348.27
2022-10-23T03:03:46.529Z,101348.30
2022-10-23T03:04:48.815Z,101348.27
2022-10-23T03:05:50.630Z,101346.56
2022-10-23T03:06:52.489Z,101348.30
2022-10-23T03:07:54.387Z,101342.22
2022-10-23T03:08:56.278Z,101343.95
2022-10-23T03:09:58.081Z,101346.56
2022-10-23T03:10:59.903Z,101343.95
2022-10-23T03:12:01.768Z,101344.82
2022-10-23T03:13:03.561Z,101345.66
2022-10-23T03:14:05.369Z,101347.42
2022-10-23T03:15:07.181Z,101345.69
2022-10-23T03:16:09.290Z,101344.82
2022-10-23T03:17:11.125Z,101341.38
2022-10-23T03:18:12.930Z,101341.35
2022-10-23T03:19:14.751Z,101343.95
2022-10-23T03:20:16.549Z,101337.88
2022-10-23T03:21:18.364Z,101344.84
2022-10-23T03:22:20.198Z,101340.51
2022-10-23T03:23:22.020Z,101331.86
2022-10-23T03:24:23.822Z,101332.70
2022-10-23T03:25:25.634Z,101337.93
2022-10-23T03:26:27.431Z,101342.33
2022-10-23T03:28:30.976Z,101332.75
2022-10-23T03:29:32.815Z,101327.57
2022-10-23T03:30:34.576Z,101327.59
2022-10-23T03:31:36.396Z,101329.36
2022-10-23T03:32:38.241Z,101329.36
2022-10-23T03:33:40.053Z,101326.76
2022-10-23T03:34:41.861Z,101323.31
2022-10-23T03:35:43.726Z,101317.20
2022-10-23T03:36:45.501Z,101312.00
2022-10-23T03:37:47.346Z,101316.34
2022-10-23T03:38:49.186Z,101314.58
2022-10-23T03:39:50.983Z,101308.50
2022-10-23T03:40:52.776Z,101313.71
2022-10-23T03:41:54.586Z,101311.97
2022-10-23T03:42:56.455Z,101308.50
2022-10-23T03:43:58.315Z,101310.27
2022-10-23T03:45:00.162Z,101311.97
2022-10-23T03:46:01.951Z,101305.92
2022-10-23T03:47:03.769Z,101310.27
2022-10-23T03:48:05.614Z,101308.53
2022-10-23T03:49:07.411Z,101308.53
2022-10-23T03:50:09.839Z,101306.77
2022-10-23T03:51:11.647Z,101303.30
2022-10-23T03:52:13.516Z,101297.22
2022-10-23T03:53:15.393Z,101296.31
2022-10-23T03:54:17.282Z,101298.95
2022-10-23T03:55:19.074Z,101296.34
2022-10-23T03:56:20.886Z,101290.27
2022-10-23T03:57:22.695Z,101292.01
2022-10-23T03:58:24.558Z,101287.64
2022-10-23T03:59:26.363Z,101288.50
2022-10-23T04:00:28.164Z,101292.84
2022-10-23T04:01:30.036Z,101285.91
2022-10-23T04:02:32.042Z,101289.38
2022-10-23T04:03:33.825Z,101287.64
2022-10-23T04:04:35.616Z,101277.25
2022-10-23T04:05:37.479Z,101283.30
2022-10-23T04:06:39.256Z,101273.75
2022-10-23T04:07:41.170Z,101274.59
2022-10-23T04:08:43.005Z,101272.83
2022-10-23T04:09:44.825Z,101269.36
2022-10-23T04:10:46.669Z,101272.77
2022-10-23T04:11:48.439Z,101277.12
2022-10-23T04:12:50.263Z,101275.36
2022-10-23T04:13:52.112Z,101272.75
2022-10-23T04:14:53.900Z,101272.75
2022-10-23T04:15:55.708Z,101275.36
2022-10-23T04:16:57.421Z,101270.12
2022-10-23T04:17:59.249Z,101266.65
2022-10-23T04:19:01.100Z,101264.09
2022-10-23T04:20:02.927Z,101263.23
2022-10-23T04:21:04.743Z,101256.28
2022-10-23T04:22:06.578Z,101260.63
2022-10-23T04:23:08.409Z,101264.97
2022-10-23T04:24:10.278Z,101251.92
2022-10-23T04:25:12.124Z,101255.45
2022-10-23T04:26:14.181Z,101258.87
2022-10-23T04:27:15.992Z,101255.42
2022-10-23T04:28:17.807Z,101252.81
2022-10-23T04:29:19.680Z,101251.92
2022-10-23T04:30:21.606Z,101253.68
2022-10-23T04:31:23.430Z,101247.63
2022-10-23T04:32:25.268Z,101249.37
2022-10-23T04:33:27.065Z,101248.50
2022-10-23T04:34:28.938Z,101249.37
2022-10-23T04:35:30.773Z,101243.30
2022-10-23T04:36:32.579Z,101248.52
2022-10-23T04:37:34.393Z,101246.78
2022-10-23T04:38:36.204Z,101244.20
2022-10-23T04:39:38.065Z,101240.73
2022-10-23T04:40:40.021Z,101242.50
2022-10-23T04:41:41.846Z,101244.23
2022-10-23T04:42:44.021Z,101246.84
2022-10-23T04:43:46.197Z,101247.73
2022-10-23T04:44:48.079Z,101236.42
2022-10-23T04:45:49.991Z,101241.62
2022-10-23T04:46:51.908Z,101232.95
2022-10-23T04:47:53.744Z,101236.42
2022-10-23T04:48:55.577Z,101232.11
2022-10-23T04:49:57.431Z,101239.92
2022-10-23T04:50:59.346Z,101235.58
2022-10-23T04:52:01.173Z,101238.19
2022-10-23T04:53:03.013Z,101236.42
2022-10-23T04:54:04.855Z,101228.59
2022-10-23T04:55:06.717Z,101233.81
2022-10-23T04:56:09.075Z,101229.48
2022-10-23T04:57:10.898Z,101231.23
2022-10-23T04:58:12.729Z,101229.53
2022-10-23T04:59:14.561Z,101221.72
2022-10-23T05:00:16.452Z,101230.42
2022-10-23T05:01:18.354Z,101227.81
2022-10-23T05:02:20.414Z,101231.31
2022-10-23T05:03:22.251Z,101227.84
2022-10-23T05:04:24.096Z,101238.28
2022-10-23T05:05:25.960Z,101231.31
2022-10-23T05:06:27.881Z,101232.23
2022-10-23T05:07:29.717Z,101234.00
2022-10-23T05:08:31.545Z,101233.10
2022-10-23T05:09:33.370Z,101223.58
2022-10-23T05:10:35.315Z,101229.67
2022-10-23T05:11:37.174Z,101237.52
2022-10-23T05:12:38.992Z,101230.55
2022-10-23T05:13:40.816Z,101230.55
2022-10-23T05:14:42.649Z,101234.91
2022-10-23T05:15:44.540Z,101231.44
2022-10-23T05:16:46.459Z,101226.25
2022-10-23T05:17:48.288Z,101229.73
2022-10-23T05:18:50.099Z,101229.73
2022-10-23T05:19:51.945Z,101232.33
2022-10-23T05:20:54.219Z,101226.25
2022-10-23T05:21:56.099Z,101225.38
2022-10-23T05:22:57.999Z,101229.73
2022-10-23T05:25:02.710Z,101226.28
2022-10-23T05:26:04.688Z,101225.41
2022-10-23T05:27:06.549Z,101228.01
2022-10-23T05:28:08.508Z,101231.52
2022-10-23T05:29:10.356Z,101232.38
2022-10-23T05:30:12.997Z,101228.03
2022-10-23T05:31:14.878Z,101224.59
2022-10-23T05:32:16.763Z,101225.45
2022-10-23T05:33:18.622Z,101230.69
2022-10-23T05:34:20.462Z,101235.89
2022-10-23T05:35:22.268Z,101228.93
2022-10-23T05:36:24.145Z,101222.84
2022-10-23T05:37:25.951Z,101225.45
2022-10-23T05:38:27.789Z,101241.98
2022-10-23T05:39:29.633Z,101233.29
2022-10-23T05:40:31.639Z,101230.66
2022-10-23T05:41:33.530Z,101232.45
2022-10-23T05:42:38.251Z,101233.29
2022-10-23T05:43:39.359Z,101232.45
2022-10-23T05:44:41.179Z,101232.45
2022-10-23T05:45:43.014Z,101246.34
2022-10-23T05:46:45.105Z,101239.45
2022-10-23T05:47:46.942Z,101239.47
2022-10-23T05:48:48.793Z,101235.15
2022-10-23T05:49:50.642Z,101237.75
2022-10-23T05:50:52.571Z,101231.70
2022-10-23T05:51:54.427Z,101231.70
2022-10-23T05:52:56.257Z,101231.73
2022-10-23T05:53:58.091Z,101229.12
2022-10-23T05:54:59.924Z,101232.59
2022-10-23T05:56:01.735Z,101230.88
2022-10-23T05:57:03.635Z,101228.27
2022-10-23T05:58:05.688Z,101232.61
2022-10-23T05:59:07.603Z,101231.75
2022-10-23T06:00:09.927Z,101231.77
2022-10-23T06:01:11.944Z,101230.01
2022-10-23T06:02:13.988Z,101230.01
2022-10-23T06:03:15.864Z,101232.63
2022-10-23T06:04:17.721Z,101229.16
2022-10-23T06:05:19.508Z,101228.33
2022-10-23T06:06:21.376Z,101223.13
2022-10-23T06:07:23.227Z,101225.77
2022-10-23T06:08:25.053Z,101225.78
2022-10-23T06:09:26.870Z,101229.27
2022-10-23T06:10:28.769Z,101228.45
2022-10-23T06:11:30.742Z,101235.38
2022-10-23T06:12:32.634Z,101230.19
2022-10-23T06:13:34.534Z,101229.32
2022-10-23T06:14:36.365Z,101235.40
2022-10-23T06:15:38.193Z,101230.19
2022-10-23T06:16:40.163Z,101227.58
2022-10-23T06:17:42.571Z,101238.91
2022-10-23T06:18:44.583Z,101234.55
2022-10-23T06:19:46.437Z,101227.58
2022-10-23T06:20:48.362Z,101224.97
2022-10-23T06:21:50.184Z,101227.60
2022-10-23T06:22:52.075Z,101233.81
2022-10-23T06:23:53.905Z,101225.99
2022-10-23T06:24:55.730Z,101231.23
2022-10-23T06:25:57.567Z,101239.05
2022-10-23T06:26:59.600Z,101234.70
2022-10-23T06:28:01.497Z,101234.72
2022-10-23T06:29:03.334Z,101227.80
2022-10-23T06:30:05.188Z,101222.61
2022-10-23T06:31:07.009Z,101231.29
2022-10-23T06:32:08.840Z,101233.05
2022-10-23T06:33:10.672Z,101230.47
2022-10-23T06:34:12.486Z,101233.92
2022-10-23T06:35:14.303Z,101242.63
2022-10-23T06:36:19.051Z,101234.80
2022-10-23T06:37:20.887Z,101232.22
2022-10-23T06:38:22.748Z,101228.75
2022-10-23T06:39:28.435Z,101232.23
2022-10-23T06:40:28.352Z,101228.78
2022-10-23T06:41:30.258Z,101230.55
2022-10-23T06:42:32.101Z,101228.78
2022-10-23T06:43:33.905Z,101230.57
2022-10-23T06:44:35.734Z,101222.75
2022-10-23T06:45:37.547Z,101234.06
2022-10-23T06:46:39.434Z,101224.50
2022-10-23T06:47:41.565Z,101227.13
2022-10-23T06:48:43.610Z,101225.41
2022-10-23T06:49:45.405Z,101227.14
2022-10-23T06:50:47.219Z,101227.14
2022-10-23T06:51:49.054Z,101222.83
2022-10-23T06:52:50.879Z,101229.80
2022-10-23T06:53:52.703Z,101228.95
2022-10-23T06:54:54.504Z,101229.80
2022-10-23T06:55:56.305Z,101223.73
2022-10-23T06:56:58.103Z,101227.23
2022-10-23T06:57:59.915Z,101218.54
2022-10-23T06:59:01.768Z,101223.77
2022-10-23T07:00:03.632Z,101223.77
2022-10-23T07:01:05.583Z,101218.58
2022-10-23T07:02:07.353Z,101222.08
2022-10-23T07:03:09.165Z,101224.69
2022-10-23T07:04:11.015Z,101222.10
2022-10-23T07:05:13.820Z,101224.71
2022-10-23T07:06:16.054Z,101224.73
2022-10-23T07:07:17.852Z,101217.75
2022-10-23T07:08:19.667Z,101222.12
2022-10-23T07:09:22.005Z,101221.22
2022-10-23T07:10:23.831Z,101233.42
2022-10-23T07:11:25.644Z,101227.34
2022-10-23T07:12:27.459Z,101218.64
2022-10-23T07:13:29.267Z,101225.61
2022-10-23T07:14:31.136Z,101230.81
2022-10-23T07:15:33.292Z,101229.05
2022-10-23T07:16:35.142Z,101232.55
2022-10-23T07:17:36.954Z,101228.20
2022-10-23T07:18:38.796Z,101229.95
2022-10-23T07:19:40.700Z,101229.95
2022-10-23T07:20:42.553Z,101224.73
2022-10-23T07:21:44.359Z,101225.58
2022-10-23T07:22:46.228Z,101218.61
2022-10-23T07:23:48.043Z,101228.20
2022-10-23T07:24:49.902Z,101219.52
2022-10-23T07:25:51.741Z,101222.14
2022-10-23T07:26:53.904Z,101218.66
2022-10-23T07:27:55.678Z,101214.34
2022-10-23T07:28:57.521Z,101216.95
2022-10-23T07:29:59.390Z,101216.05
2022-10-23T07:31:01.261Z,101212.58
2022-10-23T07:32:03.099Z,101214.31
2022-10-23T07:33:04.939Z,101213.44
2022-10-23T07:34:06.770Z,101209.13
2022-10-23T07:35:08.703Z,101210.83
2022-10-23T07:36:10.644Z,101207.36
2022-10-23T07:37:12.494Z,101205.59
2022-10-23T07:38:14.309Z,101198.67
2022-10-23T07:39:16.132Z,101194.30
2022-10-23T07:40:18.116Z,101195.16
2022-10-23T07:41:19.936Z,101194.30
2022-10-23T07:42:21.786Z,101190.83
2022-10-23T07:43:23.617Z,101195.15
2022-10-23T07:44:27.619Z,101189.06
2022-10-23T07:45:29.307Z,101187.32
2022-10-23T07:46:31.363Z,101191.69
2022-10-23T07:47:33.187Z,101182.13
2022-10-23T07:48:35.092Z,101181.27
2022-10-23T07:49:36.922Z,101183.00
2022-10-23T07:50:38.803Z,101185.61
2022-10-23T07:51:40.743Z,101179.48
2022-10-23T07:52:42.756Z,101176.03
2022-10-23T07:53:44.776Z,101173.42
2022-10-23T07:54:46.677Z,101167.34
2022-10-23T07:55:48.559Z,101163.84
2022-10-23T07:56:50.484Z,101161.23
2022-10-23T07:57:52.287Z,101155.13
2022-10-23T07:58:54.144Z,101154.28
2022-10-23T07:59:55.974Z,101146.46
2022-10-23T08:00:57.902Z,101151.67
2022-10-23T08:01:59.977Z,101144.72
2022-10-23T08:03:01.892Z,101144.73
2022-10-23T08:04:03.721Z,101140.38
2022-10-23T08:05:05.564Z,101139.52
2022-10-23T08:06:08.121Z,101139.52
2022-10-23T08:07:09.932Z,101131.72
2022-10-23T08:08:11.754Z,101142.99
2022-10-23T08:09:13.657Z,101139.52
2022-10-23T08:10:15.500Z,101129.95
2022-10-23T08:11:17.352Z,101134.33
2022-10-23T08:12:19.153Z,101132.58
2022-10-23T08:13:21.049Z,101135.19
2022-10-23T08:14:22.886Z,101134.34
2022-10-23T08:15:24.683Z,101124.77
2022-10-23T08:16:26.557Z,101117.83
2022-10-23T08:17:28.466Z,101125.67
2022-10-23T08:18:30.257Z,101116.97
2022-10-23T08:19:32.082Z,101120.48
2022-10-23T08:20:33.920Z,101115.28
2022-10-23T08:21:35.801Z,101110.05
2022-10-23T08:22:37.692Z,101110.05
2022-10-23T08:23:39.586Z,101108.30
2022-10-23T08:24:41.439Z,101106.55
2022-10-23T08:25:43.279Z,101100.47
2022-10-23T08:26:45.298Z,101097.86
2022-10-23T08:27:47.090Z,101097.84
2022-10-23T08:28:48.928Z,101095.23
2022-10-23T08:29:51.156Z,101097.00
2022-10-23T08:30:52.979Z,101091.78
2022-10-23T08:31:54.882Z,101091.80
2022-10-23T08:32:56.950Z,101087.45
2022-10-23T08:33:58.883Z,101086.58
2022-10-23T08:35:02.878Z,101095.27
2022-10-23T08:36:04.779Z,101086.58
2022-10-23T08:37:06.609Z,101093.51
2022-10-23T08:38:08.450Z,101091.80
2022-10-23T08:39:10.307Z,101084.82
2022-10-23T08:40:12.550Z,101089.19
2022-10-23T08:41:14.389Z,101083.08
2022-10-23T08:42:16.302Z,101081.35
2022-10-23T08:43:18.147Z,101082.22
2022-10-23T08:44:20.039Z,101077.00
2022-10-23T08:45:21.909Z,101075.23
2022-10-23T08:46:23.763Z,101076.14
2022-10-23T08:47:25.704Z,101073.55
2022-10-23T08:48:27.614Z,101077.02
2022-10-23T08:49:29.466Z,101074.41
2022-10-23T08:50:31.316Z,101073.58
2022-10-23T08:51:33.183Z,101077.91
2022-10-23T08:52:35.064Z,101077.92
2022-10-23T08:53:36.923Z,101067.47
2022-10-23T08:54:38.771Z,101066.64
2022-10-23T08:55:41.159Z,101065.78
2022-10-23T08:56:43.229Z,101067.47
2022-10-23T08:57:45.095Z,101063.16
2022-10-23T08:58:47.015Z,101064.87
2022-10-23T08:59:48.915Z,101064.87
2022-10-23T09:00:50.928Z,101066.63
2022-10-23T09:01:52.947Z,101068.38
2022-10-23T09:02:54.955Z,101063.17
2022-10-23T09:03:56.924Z,101062.29
2022-10-23T09:04:58.780Z,101064.05
2022-10-23T09:06:00.620Z,101057.13
2022-10-23T09:07:02.499Z,101051.91
2022-10-23T09:08:04.376Z,101057.98
2022-10-23T09:09:06.273Z,101064.06
2022-10-23T09:10:08.620Z,101055.39
2022-10-23T09:11:10.435Z,101052.80
2022-10-23T09:12:12.301Z,101057.16
2022-10-23T09:13:14.247Z,101063.26
2022-10-23T09:14:16.156Z,101054.58
2022-10-23T09:15:18.061Z,101055.45
2022-10-23T09:16:20.065Z,101053.71
2022-10-23T09:17:21.943Z,101049.36
2022-10-23T09:18:23.961Z,101052.84
2022-10-23T09:19:25.962Z,101058.91
2022-10-23T09:20:27.841Z,101051.08
2022-10-23T09:21:30.053Z,101050.23
2022-10-23T09:22:31.920Z,101047.63
2022-10-23T09:23:34.922Z,101046.78
2022-10-23T09:24:36.815Z,101042.44
2022-10-23T09:25:38.669Z,101043.30
2022-10-23T09:26:41.643Z,101040.70
2022-10-23T09:27:43.747Z,101035.48
2022-10-23T09:28:45.880Z,101036.38
2022-10-23T09:29:47.730Z,101034.61
2022-10-23T09:30:49.694Z,101034.63
2022-10-23T09:31:51.524Z,101034.63
2022-10-23T09:32:53.397Z,101037.25
2022-10-23T09:33:55.298Z,101037.25
2022-10-23T09:34:57.210Z,101030.28
2022-10-23T09:35:59.042Z,101024.20
2022-10-23T09:37:01.002Z,101026.83
2022-10-23T09:38:02.853Z,101025.08
2022-10-23T09:39:04.756Z,101019.86
2022-10-23T09:40:06.687Z,101021.62
2022-10-23T09:41:08.533Z,101013.80
2022-10-23T09:42:10.391Z,101012.05
2022-10-23T09:43:12.212Z,101014.66
2022-10-23T09:44:14.164Z,101012.94
2022-10-23T09:45:16.074Z,101006.84
2022-10-23T09:46:18.909Z,101006.84
2022-10-23T09:47:20.736Z,101006.88
2022-10-23T09:48:22.581Z,100998.16
2022-10-23T09:49:24.546Z,101004.28
2022-10-23T09:50:26.783Z,100993.84
2022-10-23T09:51:28.619Z,100992.96
2022-10-23T09:52:30.454Z,100979.92
2022-10-23T09:53:32.292Z,100979.06
2022-10-23T09:54:34.196Z,100976.45
2022-10-23T09:55:36.020Z,100979.93
2022-10-23T09:56:37.908Z,100979.94
2022-10-23T09:57:39.679Z,100974.72
2022-10-23T09:58:41.527Z,100980.84
2022-10-23T09:59:43.444Z,100976.48
2022-10-23T10:00:45.295Z,100972.13
2022-10-23T10:01:47.198Z,100969.52
2022-10-23T10:02:49.038Z,100965.20
2022-10-23T10:03:50.908Z,100966.07
2022-10-23T10:04:52.795Z,100973.05
2022-10-23T10:05:54.720Z,100959.13
2022-10-23T10:06:56.726Z,100962.64
2022-10-23T10:07:58.591Z,100971.33
2022-10-23T10:09:00.427Z,100956.53
2022-10-23T10:10:02.319Z,100956.54
2022-10-23T10:11:04.191Z,100956.54
2022-10-23T10:12:06.008Z,100952.22
2022-10-23T10:13:09.990Z,100949.61
2022-10-23T10:14:11.495Z,100954.83
2022-10-23T10:15:13.404Z,100954.83
2022-10-23T10:16:16.279Z,100950.47
2022-10-23T10:17:18.150Z,100948.72
2022-10-23T10:18:19.994Z,100946.11
2022-10-23T10:19:21.895Z,100944.39
2022-10-23T10:20:23.790Z,100933.96
2022-10-23T10:21:25.653Z,100935.71
2022-10-23T10:22:27.501Z,100937.42
2022-10-23T10:23:29.348Z,100940.03
2022-10-23T10:24:31.183Z,100934.83
2022-10-23T10:25:33.048Z,100936.57
2022-10-23T10:26:34.952Z,100937.44
2022-10-23T10:27:36.853Z,100930.50
2022-10-23T10:28:38.700Z,100927.89
2022-10-23T10:29:40.533Z,100928.75
2022-10-23T10:30:42.433Z,100925.28
2022-10-23T10:31:44.297Z,100924.39
2022-10-23T10:32:46.151Z,100922.67
2022-10-23T10:33:48.018Z,100933.98
2022-10-23T10:34:49.873Z,100922.67
2022-10-23T10:35:51.788Z,100925.30
2022-10-23T10:36:53.707Z,100920.08
2022-10-23T10:37:55.606Z,100915.70
2022-10-23T10:38:57.461Z,100915.70
2022-10-23T10:39:59.299Z,100910.48
2022-10-23T10:41:01.687Z,100913.95
2022-10-23T10:42:03.585Z,100906.12
2022-10-23T10:43:05.443Z,100906.12
2022-10-23T10:44:07.304Z,100902.66
2022-10-23T10:45:09.197Z,100908.73
2022-10-23T10:46:11.488Z,100895.69
2022-10-23T10:47:14.949Z,100897.44
2022-10-23T10:48:16.973Z,100897.44
2022-10-23T10:49:18.836Z,100887.84
2022-10-23T10:50:20.994Z,100880.91
2022-10-23T10:51:22.892Z,100886.98
2022-10-23T10:52:24.821Z,100883.52
2022-10-23T10:53:26.736Z,100882.61
2022-10-23T10:54:28.691Z,100882.61
2022-10-23T10:55:30.511Z,100887.83
2022-10-23T10:56:32.556Z,100881.75
2022-10-23T10:57:34.432Z,100878.23
2022-10-23T10:58:36.320Z,100873.02
2022-10-23T10:59:38.157Z,100870.39
2022-10-23T11:00:40.449Z,100870.39
2022-10-23T11:01:43.371Z,100871.30
2022-10-23T11:02:45.368Z,100868.69
2022-10-23T11:03:47.327Z,100871.30
2022-10-23T11:04:49.240Z,100864.31
2022-10-23T11:05:51.119Z,100872.14
2022-10-23T11:06:53.046Z,100850.40
2022-10-23T11:07:55.978Z,100860.83
2022-10-23T11:09:09.140Z,100849.50
2022-10-23T11:10:01.655Z,100849.50
2022-10-23T11:11:03.491Z,100853.85
2022-10-23T11:12:05.434Z,100853.85
2022-10-23T11:13:07.266Z,100845.16
2022-10-23T11:14:09.150Z,100844.27
2022-10-23T11:15:10.985Z,100841.66
2022-10-23T11:16:13.312Z,100844.27
2022-10-23T11:17:15.189Z,100842.55
2022-10-23T11:18:17.042Z,100837.33
2022-10-23T11:19:18.866Z,100833.83
2022-10-23T11:20:21.227Z,100842.55
2022-10-23T11:21:23.044Z,100834.72
2022-10-23T11:22:24.924Z,100834.71
2022-10-23T11:23:26.774Z,100839.92
2022-10-23T11:24:28.627Z,100839.92
2022-10-23T11:25:30.446Z,100832.09
2022-10-23T11:26:32.373Z,100831.20
2022-10-23T11:27:34.249Z,100825.98
2022-10-23T11:28:36.147Z,100831.19
2022-10-23T11:29:37.990Z,100830.33
2022-10-23T11:30:39.784Z,100828.58
2022-10-23T11:31:41.622Z,100830.31
2022-10-23T11:32:43.608Z,100830.31
2022-10-23T11:33:45.425Z,100828.55
2022-10-23T11:34:47.245Z,100814.64
2022-10-23T11:35:49.132Z,100829.40
2022-10-23T11:36:50.946Z,100826.78
2022-10-23T11:37:52.801Z,100826.78
2022-10-23T11:38:54.892Z,100826.77
2022-10-23T11:39:56.716Z,100824.16
2022-10-23T11:40:58.515Z,100819.81
2022-10-23T11:42:02.135Z,100822.42
2022-10-23T11:43:04.031Z,100819.80
2022-10-23T11:44:05.855Z,100815.44
2022-10-23T11:45:07.654Z,100821.50
2022-10-23T11:46:10.112Z,100818.03
2022-10-23T11:47:11.986Z,100823.23
2022-10-23T11:48:13.810Z,100811.95
2022-10-23T11:49:15.661Z,100805.84